BGSF

Kangerlussuaq  Airport

Kangerlussuaq, Greenland

BGSF 191650Z AUTO 05009KT 9999NDV NCD M33/M36 Q1031

Observed Flight Rules
Nov-19 @ 16:50 UTC (an hour ago)
Unavailable
Wind Clouds
50° at 9 knots
  • Clear skies
Temperatures Readings
Current -33°C / -27°F
Dewpoint -36°C / -33°F
Humidity 74%
Altimeter 30.44" Hg
Pressure 1031 hPa
Elevation 53
Observed Flight Rules
Nov-19 @ 16:50 UTC
(an hour ago)
UNK
Wind
50° at 9 knots
Clouds
  • Clear skies
Temperature Dewpoint
-33°C / -27°F -36°C / -33°F
Humidity Altimeter Pressure
74% 30.44" Hg 1031 hPa